Time;durP1;ratioP1;P1;durP2;ratioP2;P2;SDS_P1;SDS_P2;PMS_P1;PMS_P2;Temp;Humidity;BMP_temperature;BMP_pressure;BME280_temperature;BME280_humidity;BME280_pressure;Samples;Min_cycle;Max_cycle;Signal;HPM_P1;HPM_P2
2020/12/21 00:02:13;;;;;;;11.70;3.50;;;;;;;7.51;100.00;100740.94;5062115;28;20188;-30
2020/12/21 00:05:00;;;;;;;11.40;3.70;;;;;;;7.53;100.00;100742.69;5060658;28;20232;-30
2020/12/21 00:07:47;;;;;;;11.73;3.90;;;;;;;7.48;100.00;100740.91;5060408;28;20205;-30
2020/12/21 00:10:33;;;;;;;5.17;3.43;;;;;;;7.67;100.00;100742.84;5060067;28;20205;-30
2020/12/21 00:13:19;;;;;;;11.83;4.07;;;;;;;7.46;100.00;100748.59;5059336;28;20201;-29
2020/12/21 00:16:06;;;;;;;9.70;3.47;;;;;;;7.54;100.00;100746.13;5060223;28;20215;-30
2020/12/21 00:18:52;;;;;;;10.57;3.30;;;;;;;7.60;100.00;100741.88;5060037;28;20196;-30
2020/12/21 00:21:40;;;;;;;11.47;3.83;;;;;;;7.49;100.00;100732.34;5059970;28;20606;-29
2020/12/21 00:24:26;;;;;;;10.10;3.73;;;;;;;7.50;100.00;100739.22;5059599;28;20244;-29
2020/12/21 00:27:13;;;;;;;13.20;3.43;;;;;;;7.48;100.00;100739.19;5059748;28;20243;-29
2020/12/21 00:30:00;;;;;;;8.70;3.97;;;;;;;7.50;100.00;100736.63;5060262;28;20196;-29
2020/12/21 00:32:47;;;;;;;12.77;4.63;;;;;;;7.45;100.00;100738.28;5060490;28;20201;-29
2020/12/21 00:35:33;;;;;;;12.43;3.27;;;;;;;7.48;100.00;100739.19;5060682;28;20262;-29
2020/12/21 00:38:21;;;;;;;12.37;3.80;;;;;;;7.45;100.00;100735.72;5063731;28;20226;-29
2020/12/21 00:41:08;;;;;;;11.63;3.43;;;;;;;7.40;100.00;100742.50;5059994;28;20510;-29
2020/12/21 00:43:54;;;;;;;12.20;3.50;;;;;;;7.54;100.00;100738.41;5067296;28;20557;-29
2020/12/21 00:46:41;;;;;;;14.67;3.43;;;;;;;7.45;100.00;100736.56;5060177;28;20196;-29
2020/12/21 00:49:28;;;;;;;11.17;3.43;;;;;;;7.44;100.00;100731.41;5060121;28;20205;-29
2020/12/21 00:52:14;;;;;;;12.63;3.47;;;;;;;7.53;100.00;100736.69;5059349;28;20355;-29
2020/12/21 00:55:00;;;;;;;11.07;4.27;;;;;;;7.67;100.00;100744.53;5059563;28;20201;-29
2020/12/21 00:57:46;;;;;;;13.07;3.40;;;;;;;7.46;100.00;100743.47;5059600;28;20204;-31
2020/12/21 01:00:33;;;;;;;11.27;3.90;;;;;;;7.40;100.00;100745.09;5060094;28;20263;-29
2020/12/21 01:03:19;;;;;;;18.40;3.77;;;;;;;7.44;100.00;100754.56;5062659;28;20220;-29
2020/12/21 01:06:07;;;;;;;11.10;3.73;;;;;;;7.45;100.00;100748.59;5063177;28;20200;-29
2020/12/21 01:08:54;;;;;;;8.87;3.37;;;;;;;7.31;100.00;100747.56;5060380;28;20332;-29
2020/12/21 01:11:39;;;;;;;10.00;3.57;;;;;;;7.37;100.00;100747.66;5060934;28;20233;-29
2020/12/21 01:14:25;;;;;;;8.73;3.30;;;;;;;7.47;100.00;100741.75;5059308;28;20200;-29
2020/12/21 01:17:11;;;;;;;13.97;4.00;;;;;;;7.34;100.00;100742.47;5058868;28;20201;-29
2020/12/21 01:19:57;;;;;;;12.80;3.57;;;;;;;7.31;100.00;100745.84;5058784;28;20478;-29
2020/12/21 01:22:44;;;;;;;14.57;3.90;;;;;;;7.32;100.00;100751.88;5059001;28;20239;-29
2020/12/21 01:25:30;;;;;;;19.33;4.00;;;;;;;7.11;100.00;100739.59;5063191;28;20263;-29
2020/12/21 01:28:16;;;;;;;13.27;3.80;;;;;;;7.30;100.00;100743.25;5059020;28;20544;-29
2020/12/21 01:31:03;;;;;;;8.40;3.10;;;;;;;7.26;100.00;100738.06;5058894;28;20247;-29
2020/12/21 01:33:50;;;;;;;11.53;3.53;;;;;;;7.36;100.00;100741.63;5058847;28;20204;-29
2020/12/21 01:36:36;;;;;;;11.63;3.77;;;;;;;7.27;100.00;100749.22;5059259;28;20546;-30
2020/12/21 01:39:23;;;;;;;14.87;5.50;;;;;;;7.24;100.00;100744.91;5058392;28;20472;-30
2020/12/21 01:42:09;;;;;;;11.03;2.83;;;;;;;7.22;100.00;100750.88;5060238;28;20201;-30
2020/12/21 01:44:55;;;;;;;22.23;4.00;;;;;;;7.12;100.00;100749.03;5059941;28;20684;-30
2020/12/21 01:47:42;;;;;;;10.47;3.33;;;;;;;7.20;100.00;100760.28;5058269;28;20204;-30
2020/12/21 01:50:28;;;;;;;9.47;3.07;;;;;;;7.21;100.00;100757.72;5058468;28;20296;-30
2020/12/21 01:53:15;;;;;;;9.30;3.00;;;;;;;7.16;100.00;100753.38;5058879;28;20292;-30
2020/12/21 01:56:04;;;;;;;8.47;2.97;;;;;;;7.29;100.00;100760.41;5059107;28;20203;-30
2020/12/21 01:58:51;;;;;;;9.17;3.10;;;;;;;7.22;100.00;100759.44;5058467;28;20484;-30
2020/12/21 02:01:38;;;;;;;10.83;3.70;;;;;;;7.20;100.00;100763.72;5059576;28;20587;-30
2020/12/21 02:04:25;;;;;;;11.33;3.33;;;;;;;7.06;100.00;100764.38;5058733;28;20499;-30
2020/12/21 02:07:13;;;;;;;17.80;3.93;;;;;;;7.03;100.00;100756.63;5058527;28;20721;-30
2020/12/21 02:09:59;;;;;;;11.67;3.10;;;;;;;7.07;100.00;100764.41;5058967;28;20506;-30
2020/12/21 02:12:46;;;;;;;13.80;3.07;;;;;;;7.17;100.00;100757.69;5058566;28;20295;-30
2020/12/21 02:15:32;;;;;;;14.17;3.13;;;;;;;7.10;100.00;100759.31;5058451;28;20199;-30
2020/12/21 02:18:18;;;;;;;9.90;3.40;;;;;;;7.12;100.00;100761.91;5057878;28;20255;-30
2020/12/21 02:21:06;;;;;;;10.57;3.53;;;;;;;7.31;100.00;100766.44;5070516;28;20201;-30
2020/12/21 02:23:52;;;;;;;16.40;3.27;;;;;;;7.16;100.00;100755.97;5063431;28;20317;-30
2020/12/21 02:26:38;;;;;;;12.50;3.47;;;;;;;7.24;100.00;100750.03;5057839;28;20200;-30
2020/12/21 02:29:25;;;;;;;10.77;3.10;;;;;;;7.17;100.00;100755.13;5057922;28;20296;-30
2020/12/21 02:32:11;;;;;;;8.77;3.40;;;;;;;7.13;100.00;100748.19;5057850;28;20591;-30
2020/12/21 02:35:08;;;;;;;15.67;3.97;;;;;;;7.19;100.00;100750.84;5058120;28;20200;-29
2020/12/21 02:37:56;;;;;;;9.63;3.13;;;;;;;7.32;100.00;100747.59;5058356;28;20479;-30
2020/12/21 02:40:42;;;;;;;11.90;3.20;;;;;;;7.11;100.00;100748.16;5058703;28;20220;-30
2020/12/21 02:43:38;;;;;;;12.80;3.00;;;;;;;7.19;100.00;100759.41;5059658;28;20357;-30
2020/12/21 02:46:28;;;;;;;13.03;3.27;;;;;;;7.12;100.00;100752.47;5062688;28;20255;-30
2020/12/21 02:49:14;;;;;;;8.83;3.60;;;;;;;7.22;100.00;100743.16;5062242;28;20204;-30
2020/12/21 02:52:00;;;;;;;9.50;2.97;;;;;;;7.11;100.00;100744.75;5058154;28;20200;-30
2020/12/21 02:54:50;;;;;;;12.20;3.47;;;;;;;7.03;100.00;100743.75;5057954;28;20217;-31
2020/12/21 02:57:36;;;;;;;11.20;3.10;;;;;;;7.02;100.00;100742.88;5058430;28;20569;-30
2020/12/21 03:00:22;;;;;;;10.70;2.93;;;;;;;7.07;100.00;100735.25;5059582;28;20205;-30
2020/12/21 03:03:08;;;;;;;12.83;3.27;;;;;;;7.00;100.00;100742.00;5057707;28;20196;-30
2020/12/21 03:05:54;;;;;;;8.10;3.23;;;;;;;6.96;100.00;100752.25;5058860;28;20196;-30
2020/12/21 03:08:43;;;;;;;6.73;3.37;;;;;;;6.97;100.00;100757.41;5059958;28;20201;-30
2020/12/21 03:11:33;;;;;;;11.77;4.27;;;;;;;7.01;100.00;100768.59;5062338;28;20627;-30
2020/12/21 03:14:19;;;;;;;7.23;2.93;;;;;;;6.84;100.00;100768.34;5057583;28;20197;-30
2020/12/21 03:17:04;;;;;;;9.63;3.50;;;;;;;6.95;100.00;100753.97;5057618;28;20200;-30
2020/12/21 03:19:50;;;;;;;12.53;3.73;;;;;;;7.10;100.00;100761.88;5057416;28;20200;-30
2020/12/21 03:22:36;;;;;;;14.60;4.23;;;;;;;6.90;100.00;100751.31;5057340;28;20240;-30
2020/12/21 03:25:23;;;;;;;7.03;3.50;;;;;;;6.72;100.00;100752.75;5057341;28;20569;-30
2020/12/21 03:28:10;;;;;;;12.10;4.33;;;;;;;6.92;100.00;100759.06;5057900;28;20285;-30
2020/12/21 03:30:56;;;;;;;9.90;4.37;;;;;;;6.89;100.00;100749.59;5059609;28;20281;-29
2020/12/21 03:33:42;;;;;;;27.53;7.53;;;;;;;6.79;100.00;100762.31;5058766;28;20590;-30
2020/12/21 03:36:28;;;;;;;11.47;3.60;;;;;;;6.80;100.00;100761.44;5057467;28;20206;-30
2020/12/21 03:39:14;;;;;;;12.77;3.70;;;;;;;6.89;100.00;100754.72;5057649;28;20209;-30
2020/12/21 03:42:00;;;;;;;10.97;3.97;;;;;;;7.00;100.00;100756.56;5057746;28;20286;-30
2020/12/21 03:44:49;;;;;;;10.17;3.60;;;;;;;6.74;100.00;100757.09;5057689;28;20682;-29
2020/12/21 03:47:34;;;;;;;10.23;3.77;;;;;;;6.75;100.00;100752.81;5060232;28;20495;-30
2020/12/21 03:50:20;;;;;;;9.20;3.27;;;;;;;6.77;100.00;100764.84;5060635;28;20350;-30
2020/12/21 03:53:07;;;;;;;13.50;4.07;;;;;;;6.77;100.00;100756.28;5060499;28;20200;-30
2020/12/21 03:55:52;;;;;;;8.13;3.43;;;;;;;6.71;100.00;100759.59;5062055;28;20487;-30
2020/12/21 03:58:38;;;;;;;13.07;3.67;;;;;;;6.82;100.00;100752.91;5061696;28;20201;-30
2020/12/21 04:01:25;;;;;;;7.27;3.40;;;;;;;6.71;100.00;100751.91;5061796;28;20259;-29
2020/12/21 04:04:11;;;;;;;8.73;2.93;;;;;;;6.80;100.00;100744.31;5061324;28;20259;-29
2020/12/21 04:06:57;;;;;;;8.13;3.20;;;;;;;6.84;100.00;100742.63;5061839;28;20204;-30
2020/12/21 04:09:43;;;;;;;10.43;3.80;;;;;;;6.84;100.00;100742.63;5060512;28;20204;-30
2020/12/21 04:12:29;;;;;;;12.53;3.73;;;;;;;6.95;100.00;100735.97;5061667;28;20231;-30
2020/12/21 04:15:15;;;;;;;11.73;3.37;;;;;;;6.83;100.00;100730.63;5061083;28;20208;-30
2020/12/21 04:18:03;;;;;;;14.83;3.40;;;;;;;6.67;100.00;100738.97;5060464;28;20197;-30
2020/12/21 04:20:48;;;;;;;6.47;2.57;;;;;;;6.85;100.00;100721.22;5059908;28;20255;-29
2020/12/21 04:23:34;;;;;;;11.50;2.73;;;;;;;6.78;100.00;100722.88;5060377;28;20666;-30
2020/12/21 04:26:20;;;;;;;10.73;3.00;;;;;;;6.68;100.00;100733.84;5059655;28;20216;-30
2020/12/21 04:29:08;;;;;;;9.97;3.30;;;;;;;6.76;100.00;100732.28;5060122;28;20196;-30
2020/12/21 04:31:54;;;;;;;9.23;3.13;;;;;;;6.75;100.00;100740.81;5060414;28;20255;-30
2020/12/21 04:34:43;;;;;;;10.67;3.17;;;;;;;6.77;100.00;100731.44;5060697;28;20205;-30
2020/12/21 04:37:29;;;;;;;6.70;2.60;;;;;;;6.72;100.00;100729.63;5062069;28;20351;-30
2020/12/21 04:40:14;;;;;;;8.80;2.93;;;;;;;6.65;100.00;100727.78;5060463;28;20254;-30
2020/12/21 04:43:00;;;;;;;9.33;3.77;;;;;;;6.64;100.00;100721.78;5062743;28;20614;-30
2020/12/21 04:45:50;;;;;;;11.87;3.70;;;;;;;6.64;100.00;100716.66;5060700;28;20370;-30
2020/12/21 04:48:39;;;;;;;7.70;2.50;;;;;;;6.63;100.00;100716.63;5059567;28;20192;-30
2020/12/21 04:51:33;;;;;;;12.17;4.00;;;;;;;6.59;100.00;100720.03;5060325;28;20208;-30
2020/12/21 04:54:20;;;;;;;7.93;3.03;;;;;;;6.56;100.00;100707.97;5060025;28;20220;-29
2020/12/21 04:57:07;;;;;;;11.03;3.13;;;;;;;6.44;100.00;100723.19;5059869;28;20193;-30
2020/12/21 04:59:53;;;;;;;10.70;3.20;;;;;;;6.45;100.00;100725.78;5059321;28;20207;-29
2020/12/21 05:02:40;;;;;;;7.10;3.43;;;;;;;6.53;100.00;100721.66;5059394;28;20194;-30
2020/12/21 05:05:34;;;;;;;8.07;2.93;;;;;;;6.57;100.00;100713.16;5059276;28;20275;-30
2020/12/21 05:08:22;;;;;;;8.73;2.63;;;;;;;6.49;100.00;100722.44;5064278;28;20479;-30
2020/12/21 05:11:07;;;;;;;6.37;2.63;;;;;;;6.46;100.00;100722.38;5060561;28;20208;-30
2020/12/21 05:14:04;;;;;;;6.57;3.37;;;;;;;6.48;100.00;100728.41;5064838;28;20297;-30
2020/12/21 05:16:50;;;;;;;13.30;3.43;;;;;;;6.60;100.00;100712.31;5059667;28;20196;-30
2020/12/21 05:19:36;;;;;;;8.33;3.20;;;;;;;6.54;100.00;100714.81;5059643;28;20302;-30
2020/12/21 05:22:23;;;;;;;13.00;3.00;;;;;;;6.46;100.00;100717.25;5059760;28;20491;-30
2020/12/21 05:25:10;;;;;;;9.00;3.73;;;;;;;6.57;100.00;100717.44;5059274;28;20303;-30
2020/12/21 05:27:56;;;;;;;8.00;3.70;;;;;;;6.48;100.00;100720.72;5058941;28;20203;-30
2020/12/21 05:30:52;;;;;;;9.77;2.80;;;;;;;6.48;100.00;100718.13;5059150;28;20614;-30
2020/12/21 05:33:41;;;;;;;7.80;2.93;;;;;;;6.56;100.00;100714.00;5059594;28;20243;-29
2020/12/21 05:36:26;;;;;;;10.90;3.93;;;;;;;6.56;100.00;100705.41;5059307;28;20302;-30
2020/12/21 05:39:13;;;;;;;10.20;3.20;;;;;;;6.48;100.00;100700.16;5039097;28;20248;-30
2020/12/21 05:42:12;;;;;;;8.27;3.37;;;;;;;6.59;100.00;100700.31;5039018;28;20200;-30
2020/12/21 05:45:02;;;;;;;9.40;3.30;;;;;;;6.51;100.00;100700.19;5038784;28;20275;-30
2020/12/21 05:47:49;;;;;;;11.60;2.83;;;;;;;6.51;100.00;100702.78;5043470;28;20289;-29
2020/12/21 05:50:41;;;;;;;6.47;2.50;;;;;;;6.49;100.00;100701.88;5039776;28;20205;-30
2020/12/21 05:53:35;;;;;;;8.43;3.00;;;;;;;6.48;100.00;100707.00;5040791;28;20344;-30
2020/12/21 05:56:22;;;;;;;5.70;2.50;;;;;;;6.51;100.00;100700.19;5040658;28;20247;-30
2020/12/21 05:59:10;;;;;;;8.80;2.90;;;;;;;6.41;100.00;100694.88;5038717;28;20209;-29
2020/12/21 06:01:59;;;;;;;12.13;3.93;;;;;;;6.52;100.00;100704.50;5039449;28;20193;-30
2020/12/21 06:04:48;;;;;;;8.57;2.90;;;;;;;6.31;100.00;100700.75;5039213;28;20229;-29
2020/12/21 06:07:36;;;;;;;7.57;3.00;;;;;;;6.36;100.00;100699.97;5038938;28;20307;-29
2020/12/21 06:10:27;;;;;;;8.37;2.77;;;;;;;6.34;100.00;100701.66;5038214;28;20224;-30
2020/12/21 06:13:16;;;;;;;8.17;3.13;;;;;;;6.41;100.00;100702.59;5038749;28;20204;-30
2020/12/21 06:16:05;;;;;;;5.33;2.47;;;;;;;6.46;100.00;100713.81;5038278;28;20503;-30
2020/12/21 06:19:02;;;;;;;9.40;3.60;;;;;;;6.45;100.00;100710.38;5039003;28;20260;-30
2020/12/21 06:21:51;;;;;;;128.47;82.53;;;;;;;6.45;100.00;100697.53;5038146;28;20211;-30
2020/12/21 06:24:38;;;;;;;21.70;13.83;;;;;;;6.52;100.00;100695.94;5037409;28;20352;-30
2020/12/21 06:27:42;;;;;;;5.33;3.63;;;;;;;6.43;100.00;100688.94;5040589;28;20220;-29
2020/12/21 06:30:32;;;;;;;18.40;11.37;;;;;;;6.50;100.00;100692.47;5038648;28;20202;-30
2020/12/21 06:33:19;;;;;;;13.23;4.70;;;;;;;6.52;100.00;100696.78;5038641;28;20201;-29
2020/12/21 06:36:09;;;;;;;11.57;6.17;;;;;;;6.51;100.00;100700.19;5037967;28;20300;-30
2020/12/21 06:38:57;;;;;;;9.33;3.33;;;;;;;6.37;100.00;100695.69;5037419;28;20200;-30
2020/12/21 06:41:43;;;;;;;6.77;3.40;;;;;;;6.32;100.00;100698.19;5037647;28;20197;-30
2020/12/21 06:44:30;;;;;;;9.50;4.13;;;;;;;6.51;100.00;100684.78;5038158;28;20233;-30
2020/12/21 06:47:16;;;;;;;8.17;2.73;;;;;;;6.46;100.00;100703.53;5038579;28;20207;-30
2020/12/21 06:50:03;;;;;;;8.67;5.17;;;;;;;6.48;100.00;100700.16;5037632;28;20547;-30
2020/12/21 06:52:49;;;;;;;7.93;3.63;;;;;;;6.47;100.00;100685.56;5036856;28;20201;-30
2020/12/21 06:55:36;;;;;;;10.17;5.97;;;;;;;6.53;100.00;100687.38;5036853;28;20201;-30
2020/12/21 06:58:34;;;;;;;13.37;3.90;;;;;;;6.61;100.00;100684.88;5036993;28;20213;-29
2020/12/21 07:01:22;;;;;;;15.13;12.90;;;;;;;6.68;100.00;100677.28;5037544;28;20207;-29
2020/12/21 07:04:16;;;;;;;12.70;5.53;;;;;;;6.72;100.00;100673.94;5037096;28;20280;-29
2020/12/21 07:07:04;;;;;;;6.20;3.80;;;;;;;6.63;100.00;100676.38;5037450;28;20193;-29
2020/12/21 07:09:50;;;;;;;9.13;5.03;;;;;;;6.76;100.00;100677.41;5036880;28;20196;-30
2020/12/21 07:12:37;;;;;;;6.93;4.70;;;;;;;6.63;100.00;100680.63;5037565;28;20665;-30
2020/12/21 07:15:23;;;;;;;7.47;2.87;;;;;;;6.74;100.00;100692.81;5056890;28;20193;-30
2020/12/21 07:18:11;;;;;;;4.47;3.67;;;;;;;6.78;100.00;100686.00;5060365;28;20209;-30
2020/12/21 07:20:57;;;;;;;6.70;2.67;;;;;;;6.65;100.00;100696.94;5061102;28;20619;-29
2020/12/21 07:23:45;;;;;;;20.13;13.57;;;;;;;6.77;100.00;100692.00;5062256;28;20244;-30
2020/12/21 07:26:31;;;;;;;10.27;4.37;;;;;;;6.67;100.00;100700.41;5062059;28;20200;-30
2020/12/21 07:29:17;;;;;;;13.37;8.70;;;;;;;6.84;100.00;100699.78;5061682;28;20197;-30
2020/12/21 07:32:03;;;;;;;12.67;9.67;;;;;;;6.86;100.00;100697.25;5061060;28;20205;-29
2020/12/21 07:34:53;;;;;;;13.90;9.10;;;;;;;6.70;100.00;100698.75;5061250;28;20290;-30
2020/12/21 07:37:39;;;;;;;12.87;7.57;;;;;;;6.77;100.00;100697.13;5061798;28;20490;-30
2020/12/21 07:40:27;;;;;;;7.77;3.13;;;;;;;6.69;100.00;100703.88;5061192;28;20193;-30
2020/12/21 07:43:18;;;;;;;12.73;2.90;;;;;;;6.77;100.00;100698.00;5061267;28;20204;-31
2020/12/21 07:46:06;;;;;;;13.67;8.30;;;;;;;6.87;100.00;100694.69;5061173;28;20585;-30
2020/12/21 07:48:55;;;;;;;15.63;6.87;;;;;;;6.76;100.00;100696.28;5062458;28;20252;-30
2020/12/21 07:51:44;;;;;;;20.93;5.90;;;;;;;6.81;100.00;100697.19;5061647;28;20680;-30
2020/12/21 07:54:33;;;;;;;10.43;3.00;;;;;;;6.99;100.00;100690.56;5061482;28;20603;-29
2020/12/21 07:57:20;;;;;;;9.83;2.97;;;;;;;6.86;100.00;100690.41;5062542;28;20492;-30
2020/12/21 08:00:06;;;;;;;10.93;2.77;;;;;;;6.86;100.00;100689.53;5061049;28;20204;-29
2020/12/21 08:02:59;;;;;;;9.17;3.00;;;;;;;6.97;100.00;100700.84;5064096;28;20542;-30
2020/12/21 08:05:46;;;;;;;15.47;3.30;;;;;;;6.98;100.00;100699.13;5061152;28;20505;-30
2020/12/21 08:08:33;;;;;;;11.00;3.23;;;;;;;6.96;100.00;100698.25;5060584;28;20203;-30
2020/12/21 08:11:19;;;;;;;9.13;3.00;;;;;;;6.97;100.00;100703.41;5060657;28;20204;-30
2020/12/21 08:14:08;;;;;;;8.87;2.43;;;;;;;7.12;100.00;100701.03;5060322;28;20723;-30
2020/12/21 08:16:54;;;;;;;13.20;3.60;;;;;;;7.17;100.00;100706.25;5060229;28;20196;-31
2020/12/21 08:19:48;;;;;;;8.03;2.90;;;;;;;7.32;100.00;100687.53;5042086;28;20292;-42
2020/12/21 08:22:37;;;;;;;6.73;2.87;;;;;;;7.30;100.00;100689.22;5050243;28;20346;-30
2020/12/21 08:25:27;;;;;;;10.13;3.87;;;;;;;7.34;100.00;100685.84;5055104;28;20336;-29
2020/12/21 08:28:13;;;;;;;6.17;3.00;;;;;;;7.06;100.00;100672.66;5059060;28;20197;-30
2020/12/21 08:31:09;;;;;;;7.37;3.20;;;;;;;7.12;100.00;100683.03;5070326;28;20209;-29
2020/12/21 08:33:58;;;;;;;8.07;3.60;;;;;;;7.15;100.00;100665.06;5059085;28;20209;-30
2020/12/21 08:36:47;;;;;;;9.40;4.10;;;;;;;7.34;100.00;100680.69;5039012;28;20205;-31
2020/12/21 08:39:33;;;;;;;7.33;3.97;;;;;;;7.19;100.00;100671.94;5041533;28;20297;-30
2020/12/21 08:42:19;;;;;;;7.20;3.13;;;;;;;7.26;100.00;100667.72;5041237;28;20193;-30
2020/12/21 08:45:07;;;;;;;9.60;3.43;;;;;;;7.52;100.00;100671.47;5059464;28;20286;-30
2020/12/21 08:47:54;;;;;;;11.07;3.93;;;;;;;7.19;100.00;100676.25;5059012;28;20200;-30
2020/12/21 08:50:40;;;;;;;8.70;3.40;;;;;;;7.55;100.00;100673.22;5059250;28;20515;-30
2020/12/21 08:53:26;;;;;;;8.03;3.57;;;;;;;7.25;100.00;100671.16;5059250;28;20200;-30
2020/12/21 08:56:14;;;;;;;7.67;3.77;;;;;;;7.53;100.00;100672.31;5059224;28;20196;-29
2020/12/21 08:59:01;;;;;;;8.03;4.17;;;;;;;7.30;100.00;100671.22;5059175;28;20540;-30
2020/12/21 09:01:48;;;;;;;8.10;4.70;;;;;;;7.36;100.00;100669.56;5059307;28;20228;-30
2020/12/21 09:04:34;;;;;;;7.60;4.57;;;;;;;7.26;100.00;100653.16;5058857;28;20212;-30
2020/12/21 09:07:20;;;;;;;12.53;3.70;;;;;;;7.29;100.00;100660.06;5058583;28;20227;-30
2020/12/21 09:10:06;;;;;;;11.33;4.37;;;;;;;7.56;100.00;100646.63;5058814;28;20259;-30
2020/12/21 09:12:52;;;;;;;9.57;3.47;;;;;;;7.33;100.00;100653.22;5058867;28;20288;-29
2020/12/21 09:15:40;;;;;;;7.90;3.20;;;;;;;7.30;100.00;100654.06;5057970;28;20247;-30
2020/12/21 09:18:26;;;;;;;8.67;3.03;;;;;;;7.48;100.00;100656.81;5058582;28;20263;-30
2020/12/21 09:21:19;;;;;;;13.17;4.47;;;;;;;7.45;100.00;100654.22;5058461;28;20203;-29
2020/12/21 09:24:04;;;;;;;11.03;6.57;;;;;;;7.53;100.00;100649.16;5058485;28;20239;-30
2020/12/21 09:26:51;;;;;;;7.93;2.80;;;;;;;7.43;100.00;100650.75;5058355;28;20216;-30
2020/12/21 09:29:38;;;;;;;11.13;4.47;;;;;;;7.65;100.00;100651.84;5058882;28;20217;-30
2020/12/21 09:32:24;;;;;;;11.13;3.33;;;;;;;7.54;100.00;100645.72;5058311;28;20223;-30
2020/12/21 09:35:10;;;;;;;7.20;3.17;;;;;;;7.71;100.00;100645.88;5040019;28;20200;-30
2020/12/21 09:37:58;;;;;;;11.07;3.30;;;;;;;7.84;100.00;100639.97;5046729;28;20197;-30
2020/12/21 09:40:52;;;;;;;7.13;3.60;;;;;;;7.88;100.00;100637.44;5044800;28;20198;-30
2020/12/21 09:43:40;;;;;;;5.67;3.13;;;;;;;8.04;100.00;100632.41;5045230;28;20268;-30
2020/12/21 09:46:29;;;;;;;5.83;3.03;;;;;;;7.80;100.00;100631.38;5049369;28;20225;-30
2020/12/21 09:49:15;;;;;;;3.00;2.30;;;;;;;8.00;100.00;100625.50;5040260;28;20293;-30
2020/12/21 09:52:02;;;;;;;5.17;2.70;;;;;;;8.12;100.00;100626.47;5038006;28;20272;-30
2020/12/21 09:54:49;;;;;;;3.80;2.60;;;;;;;8.15;100.00;100620.50;5037816;28;20212;-30
2020/12/21 09:57:35;;;;;;;12.13;3.60;;;;;;;8.15;100.00;100605.88;5037110;28;20201;-29
2020/12/21 10:00:22;;;;;;;7.80;3.27;;;;;;;8.33;100.00;100609.47;5037845;28;20202;-30
2020/12/21 10:03:07;;;;;;;7.37;3.07;;;;;;;8.35;100.00;100620.66;5037627;28;20226;-29
2020/12/21 10:05:56;;;;;;;8.13;3.17;;;;;;;8.48;100.00;100617.28;5043764;28;20220;-30
2020/12/21 10:08:42;;;;;;;9.33;3.10;;;;;;;8.45;100.00;100607.81;5053425;28;20216;-29
2020/12/21 10:11:29;;;;;;;4.43;2.50;;;;;;;8.40;100.00;100608.63;5057774;28;20211;-30
2020/12/21 10:14:15;;;;;;;6.90;2.20;;;;;;;8.42;100.00;100604.34;5057449;28;20255;-30
2020/12/21 10:17:02;;;;;;;9.03;3.27;;;;;;;8.40;100.00;100591.44;5057664;28;20201;-29
2020/12/21 10:19:51;;;;;;;6.57;3.00;;;;;;;8.54;100.00;100579.50;5057510;28;20263;-30
2020/12/21 10:22:37;;;;;;;7.47;2.20;;;;;;;8.58;100.00;100578.69;5057156;28;20298;-30
2020/12/21 10:25:23;;;;;;;10.27;2.90;;;;;;;8.86;100.00;100573.59;5057343;28;20221;-30
2020/12/21 10:28:11;;;;;;;8.03;3.10;;;;;;;8.89;100.00;100561.56;5037922;28;20634;-30
2020/12/21 10:30:57;;;;;;;7.67;2.73;;;;;;;8.61;100.00;100562.31;5036944;28;20213;-30
2020/12/21 10:33:43;;;;;;;8.70;3.77;;;;;;;8.49;100.00;100563.16;5045004;28;20526;-29
2020/12/21 10:36:30;;;;;;;8.00;2.70;;;;;;;8.64;100.00;100558.03;5057307;28;20483;-30
2020/12/21 10:39:16;;;;;;;7.33;3.20;;;;;;;8.63;100.00;100550.31;5038855;28;20209;-30
2020/12/21 10:42:05;;;;;;;6.67;2.73;;;;;;;8.66;100.00;100546.88;5039687;28;20203;-30
2020/12/21 10:44:53;;;;;;;12.23;3.30;;;;;;;8.84;100.00;100546.94;5047634;28;20228;-31
2020/12/21 10:47:39;;;;;;;6.10;2.40;;;;;;;8.91;100.00;100535.78;5056811;28;20505;-30
2020/12/21 10:50:25;;;;;;;5.20;2.43;;;;;;;9.01;100.00;100527.19;5047982;28;20513;-30
2020/12/21 10:53:12;;;;;;;7.90;3.10;;;;;;;8.98;100.00;100522.91;5056434;28;20570;-30
2020/12/21 10:55:58;;;;;;;13.07;3.20;;;;;;;8.85;100.00;100523.72;5056124;28;20259;-31
2020/12/21 10:58:44;;;;;;;8.77;2.40;;;;;;;8.99;100.00;100523.78;5060726;28;20212;-30
2020/12/21 11:01:33;;;;;;;5.63;2.27;;;;;;;9.09;100.00;100522.06;5060438;28;20467;-30
2020/12/21 11:04:19;;;;;;;5.57;2.20;;;;;;;8.81;100.00;100518.53;5060502;28;20467;-30
2020/12/21 11:07:05;;;;;;;6.97;2.07;;;;;;;8.94;100.00;100512.56;5061031;28;20203;-30
2020/12/21 11:09:51;;;;;;;4.33;1.93;;;;;;;8.95;100.00;100504.84;5061299;28;20205;-29
2020/12/21 11:12:37;;;;;;;7.50;2.13;;;;;;;9.02;100.00;100497.94;5061038;28;20204;-30
2020/12/21 11:15:24;;;;;;;5.67;2.07;;;;;;;8.84;100.00;100493.63;5060772;28;20339;-30
2020/12/21 11:18:12;;;;;;;6.00;2.10;;;;;;;8.91;100.00;100492.78;5060503;28;20600;-30
2020/12/21 11:20:59;;;;;;;6.47;2.73;;;;;;;9.26;100.00;100494.53;5061650;28;20205;-30
2020/12/21 11:23:45;;;;;;;7.97;2.40;;;;;;;9.05;100.00;100484.19;5059181;28;20642;-30
2020/12/21 11:26:31;;;;;;;9.17;2.63;;;;;;;9.03;100.00;100479.03;5061087;28;20282;-29
2020/12/21 11:29:17;;;;;;;10.73;2.67;;;;;;;9.31;100.00;100470.44;5040886;28;20262;-30
2020/12/21 11:32:04;;;;;;;5.17;2.40;;;;;;;9.11;100.00;100472.16;5040833;28;20237;-30
2020/12/21 11:34:51;;;;;;;8.33;2.57;;;;;;;9.56;100.00;100475.59;5040426;28;20607;-30
2020/12/21 11:37:37;;;;;;;9.37;2.50;;;;;;;9.27;100.00;100475.59;5040271;28;20199;-30
2020/12/21 11:40:37;;;;;;;4.83;2.10;;;;;;;9.11;100.00;100467.00;5040410;28;20729;-30
2020/12/21 11:43:25;;;;;;;4.60;2.17;;;;;;;9.18;100.00;100462.72;5042005;28;20205;-30
2020/12/21 11:46:12;;;;;;;8.80;2.17;;;;;;;9.24;100.00;100449.78;5061103;28;20229;-29
2020/12/21 11:48:58;;;;;;;9.57;2.83;;;;;;;9.15;100.00;100437.78;5061306;28;20201;-30
2020/12/21 11:51:45;;;;;;;7.50;2.90;;;;;;;9.18;100.00;100435.19;5051330;28;20220;-30
2020/12/21 11:54:33;;;;;;;10.77;2.73;;;;;;;9.45;100.00;100438.59;5061555;28;20252;-30
2020/12/21 11:57:19;;;;;;;12.03;2.70;;;;;;;9.45;100.00;100420.50;5048522;28;20218;-30
2020/12/21 12:00:06;;;;;;;5.23;2.60;;;;;;;9.35;100.00;100418.81;5043591;28;20221;-30
2020/12/21 12:02:51;;;;;;;9.77;3.60;;;;;;;9.45;100.00;100416.22;5050033;28;20216;-30
2020/12/21 12:05:38;;;;;;;5.70;3.10;;;;;;;9.35;100.00;100416.25;5052727;28;20229;-30
2020/12/21 12:08:25;;;;;;;8.63;3.07;;;;;;;9.65;100.00;100417.03;5057960;28;20212;-30
2020/12/21 12:11:23;;;;;;;5.67;2.40;;;;;;;9.37;100.00;100414.53;5041524;28;20205;-30
2020/12/21 12:14:17;;;;;;;9.77;3.20;;;;;;;9.63;100.00;100410.16;5041673;28;20661;-30
2020/12/21 12:17:03;;;;;;;9.50;2.97;;;;;;;9.48;100.00;100405.03;5055547;28;20196;-30
2020/12/21 12:19:51;;;;;;;8.67;3.00;;;;;;;9.68;100.00;100409.28;5058907;28;20196;-30
2020/12/21 12:22:39;;;;;;;6.90;2.87;;;;;;;9.60;100.00;100404.97;5046114;28;20232;-30
2020/12/21 12:25:26;;;;;;;11.53;3.40;;;;;;;9.59;100.00;100411.03;5057379;28;20260;-30
2020/12/21 12:28:15;;;;;;;5.03;3.77;;;;;;;9.90;100.00;100415.25;5059997;28;20224;-30
2020/12/21 12:31:05;;;;;;;6.80;4.53;;;;;;;9.80;100.00;100404.94;5057495;28;20627;-31
2020/12/21 12:33:52;;;;;;;6.40;3.43;;;;;;;9.72;100.00;100399.81;5039854;28;20251;-30
2020/12/21 12:36:39;;;;;;;6.50;3.50;;;;;;;9.71;100.00;100397.22;5055306;28;20277;-30
2020/12/21 12:39:24;;;;;;;7.67;3.60;;;;;;;9.88;100.00;100395.44;5056723;28;20209;-30
2020/12/21 12:42:13;;;;;;;5.40;3.50;;;;;;;9.92;100.00;100397.16;5060154;28;20721;-30
2020/12/21 12:44:59;;;;;;;9.33;4.03;;;;;;;9.86;100.00;100390.28;5059499;28;20251;-30
2020/12/21 12:47:45;;;;;;;10.10;3.47;;;;;;;10.00;100.00;100388.47;5059432;28;20204;-31
2020/12/21 12:50:33;;;;;;;6.87;3.50;;;;;;;10.00;100.00;100385.03;5059200;28;20201;-30
2020/12/21 12:53:24;;;;;;;10.00;3.70;;;;;;;9.72;100.00;100389.47;5044076;28;20201;-31
2020/12/21 12:56:20;;;;;;;7.67;3.90;;;;;;;9.72;100.00;100384.31;5039233;28;20205;-31